Topeka, KS (66611)

12:25 AM CST die 20o February, anno 2017 (GMT -0600)
Knollwood | | Change Station

Elev 978 ft 39.02 °N, 95.70 °W | Updated 27 seconds ago

Plerumque Nubila
Plerumque Nubila
61.9 °F
Feels Like 61.9 °F
N
3.0
Ventus Variabilis Ventus from Auster

Hodie
High -- | Low -- °F
--% Chance of Precip.
Yesterday
High -- | Low -- °F
Precip. -- in
Pressio 29.83 in
Visibilitas 9.0 milia passuum
Clouds Few 3500 ft
Frigus in quo Ros apparet 57 °F
Umor 86%
Rainfall 0.00 in
Snow Depth Not available.
7:07 AM 6:06 PM
Last Quarter, 37% visible
METAR KFOE 200553Z AUTO 15012KT 9SM FEW035 18/13 A2985 RMK AO2 SLP101 T01780133 10178 20139 402000056 56013
Pressio 29.83 in
Visibilitas 9.0 milia passuum
Clouds Few 3500 ft
Frigus in quo Ros apparet 57 °F
Umor 86%
Rainfall 0.00 in
Snow Depth Not available.
7:07 AM 6:06 PM
Last Quarter, 37% visible
METAR KFOE 200553Z AUTO 15012KT 9SM FEW035 18/13 A2985 RMK AO2 SLP101 T01780133 10178 20139 402000056 56013

Get Your Daily Forecast Email!

Thanks for signing up!

Be on the lookout for a verification email in your inbox.

You'll start receiving the daily forecast at 8 AM.

×

10-Day Weather Forecast

Almanac

Astronomy

Feb. 20, 2017 Rise Set
Actual Time
Civil Twilight
Nautical Twilight
Astronomical Twilight
Moon
Length Of Visible Light
Length of Day
Tomorrow will be .
, % of the Moon is Illuminated

Today's Extremes

State Highs State Lows

Community

WunderPhotos

Upload Photos

1,962,540 photos uploaded!

WunderBlog® & News

Nearby

Air Quality

  Air Quality AQ Index Pollutant
Not available.

Snow Depth

Station Depth Elevation

Earthquake Activity

City Distance Mag. Time & Date
Minimum magnitude displayed is 2.5.

Coastal Water Temperatures

Locus Calor

Stations

Nearby Weather Stations

Station Location Temp Frigus Venti Frigus in quo Ros apparet Umor Ventus Precip. Elev Renovata Type
                   

Watches & Warnings

There are currently no watches in effect.